createdAt,value
2017-10-15T00:00:44.851Z,8.10
2017-10-15T00:01:44.845Z,8.30
2017-10-15T00:02:44.846Z,8.20
2017-10-15T00:03:44.842Z,8.50
2017-10-15T00:04:44.839Z,8.40
2017-10-15T00:05:44.839Z,8.30
2017-10-15T00:06:44.837Z,9.10
2017-10-15T00:07:44.835Z,8.20
2017-10-15T00:08:44.832Z,8.60
2017-10-15T00:09:44.844Z,8.90
2017-10-15T00:10:44.832Z,8.50
2017-10-15T00:11:44.832Z,8.50
2017-10-15T00:12:44.828Z,8.30
2017-10-15T00:13:44.825Z,8.50
2017-10-15T00:14:44.827Z,8.80
2017-10-15T00:15:44.824Z,8.10
2017-10-15T00:16:44.821Z,9.60
2017-10-15T00:17:44.816Z,8.70
2017-10-15T00:18:44.813Z,8.40
2017-10-15T00:19:44.813Z,8.20
2017-10-15T00:20:44.810Z,8.70
2017-10-15T00:21:44.810Z,9.10
2017-10-15T00:22:44.809Z,9.00
2017-10-15T00:23:44.806Z,8.90
2017-10-15T00:24:44.804Z,8.40
2017-10-15T00:25:44.804Z,8.70
2017-10-15T00:26:44.805Z,8.90
2017-10-15T00:27:44.801Z,8.50
2017-10-15T00:28:44.803Z,8.40
2017-10-15T00:29:44.794Z,8.30
2017-10-15T00:30:44.793Z,8.80
2017-10-15T00:31:44.791Z,8.30
2017-10-15T00:32:44.789Z,8.60
2017-10-15T00:33:44.791Z,9.30
2017-10-15T00:34:44.793Z,8.30
2017-10-15T00:35:44.786Z,9.00
2017-10-15T00:36:44.785Z,8.50
2017-10-15T00:37:44.783Z,8.50
2017-10-15T00:38:44.781Z,10.30
2017-10-15T00:39:44.780Z,9.70
2017-10-15T00:40:44.777Z,8.50
2017-10-15T00:41:44.772Z,9.20
2017-10-15T00:42:44.769Z,9.10
2017-10-15T00:43:44.767Z,8.90
2017-10-15T00:44:44.765Z,8.80
2017-10-15T00:45:44.764Z,9.00
2017-10-15T00:46:44.763Z,9.00
2017-10-15T00:47:44.759Z,9.20
2017-10-15T00:48:44.757Z,8.50
2017-10-15T00:49:44.759Z,8.80
2017-10-15T00:50:44.758Z,8.70
2017-10-15T00:51:44.755Z,8.50
2017-10-15T00:52:44.752Z,8.40
2017-10-15T00:53:44.751Z,9.20
2017-10-15T00:54:44.750Z,9.40
2017-10-15T00:55:44.747Z,8.50
2017-10-15T00:56:44.745Z,8.50
2017-10-15T00:57:44.740Z,7.80
2017-10-15T00:58:44.737Z,8.90
2017-10-15T00:59:44.746Z,8.80
2017-10-15T01:00:44.731Z,8.30
2017-10-15T01:01:44.729Z,8.80
2017-10-15T01:02:44.728Z,7.90
2017-10-15T01:03:44.727Z,8.80
2017-10-15T01:04:44.724Z,8.70
2017-10-15T01:05:44.728Z,9.00
2017-10-15T01:06:44.725Z,8.90
2017-10-15T01:07:44.724Z,9.10
2017-10-15T01:08:44.719Z,8.00
2017-10-15T01:09:44.718Z,8.60
2017-10-15T01:10:44.717Z,8.20
2017-10-15T01:11:44.714Z,8.90
2017-10-15T01:12:44.712Z,9.00
2017-10-15T01:13:44.708Z,9.00
2017-10-15T01:14:44.704Z,8.60
2017-10-15T01:15:44.701Z,8.40
2017-10-15T01:16:44.698Z,8.40
2017-10-15T01:17:44.697Z,8.90
2017-10-15T01:18:44.696Z,8.60
2017-10-15T01:19:44.693Z,8.50
2017-10-15T01:20:44.689Z,8.20
2017-10-15T01:21:44.692Z,8.50
2017-10-15T01:22:44.691Z,9.10
2017-10-15T01:23:44.688Z,8.60
2017-10-15T01:24:44.686Z,8.90
2017-10-15T01:25:44.684Z,9.20
2017-10-15T01:26:44.682Z,8.70
2017-10-15T01:27:44.680Z,8.90
2017-10-15T01:28:44.676Z,8.50
2017-10-15T01:29:44.669Z,8.80
2017-10-15T01:30:44.670Z,8.80
2017-10-15T01:31:44.675Z,8.70
2017-10-15T01:32:44.663Z,8.60
2017-10-15T01:33:44.672Z,9.20
2017-10-15T01:34:44.667Z,8.90
2017-10-15T01:35:44.661Z,8.80
2017-10-15T01:36:44.659Z,8.60
2017-10-15T01:37:44.653Z,8.50
2017-10-15T01:38:44.651Z,9.20
2017-10-15T01:39:44.649Z,8.70
2017-10-15T01:40:44.645Z,8.60
2017-10-15T01:41:44.643Z,9.10
2017-10-15T01:42:44.642Z,8.00
2017-10-15T01:43:44.640Z,8.90
2017-10-15T01:44:44.636Z,8.50
2017-10-15T01:45:44.638Z,9.30
2017-10-15T01:46:44.637Z,9.10
2017-10-15T01:47:44.635Z,9.10
2017-10-15T01:48:44.632Z,8.60
2017-10-15T01:49:44.630Z,8.10
2017-10-15T01:50:44.628Z,8.30
2017-10-15T01:51:44.626Z,8.60
2017-10-15T01:52:44.622Z,8.30
2017-10-15T01:53:44.618Z,8.90
2017-10-15T01:54:44.614Z,8.00
2017-10-15T01:55:44.612Z,8.60
2017-10-15T01:56:44.609Z,8.20
2017-10-15T01:57:44.608Z,8.30
2017-10-15T01:58:44.604Z,8.30
2017-10-15T01:59:44.608Z,8.50
2017-10-15T02:00:44.600Z,8.60
2017-10-15T02:01:44.602Z,8.40
2017-10-15T02:02:44.601Z,8.30
2017-10-15T02:03:44.598Z,8.60
2017-10-15T02:04:44.601Z,8.50
2017-10-15T02:05:44.593Z,8.70
2017-10-15T02:06:44.592Z,8.60
2017-10-15T02:07:44.589Z,8.60
2017-10-15T02:08:44.584Z,8.40
2017-10-15T02:09:44.578Z,8.60
2017-10-15T02:10:44.577Z,9.10
2017-10-15T02:11:44.575Z,8.50
2017-10-15T02:12:44.572Z,8.50
2017-10-15T02:13:44.582Z,8.30
2017-10-15T02:14:44.567Z,8.50
2017-10-15T02:15:44.565Z,8.60
2017-10-15T02:16:44.561Z,8.90
2017-10-15T02:17:44.564Z,8.70
2017-10-15T02:18:44.563Z,8.50
2017-10-15T02:19:44.561Z,8.50
2017-10-15T02:20:44.556Z,8.00
2017-10-15T02:21:44.554Z,8.40
2017-10-15T02:22:44.553Z,8.40
2017-10-15T02:23:44.551Z,8.50
2017-10-15T02:24:44.547Z,8.90
2017-10-15T02:25:44.542Z,8.30
2017-10-15T02:26:44.537Z,8.40
2017-10-15T02:27:44.538Z,7.90
2017-10-15T02:28:44.534Z,8.40
2017-10-15T02:29:44.531Z,8.20
2017-10-15T02:30:44.530Z,8.70
2017-10-15T02:31:44.526Z,8.80
2017-10-15T02:32:44.525Z,8.50
2017-10-15T02:33:44.527Z,8.70
2017-10-15T02:34:44.525Z,8.70
2017-10-15T02:35:44.520Z,8.30
2017-10-15T02:36:44.519Z,8.70
2017-10-15T02:37:44.512Z,9.30
2017-10-15T02:38:44.511Z,8.50
2017-10-15T02:39:44.507Z,8.70
2017-10-15T02:40:44.507Z,8.80
2017-10-15T02:41:44.509Z,8.90
2017-10-15T02:42:44.505Z,9.20
2017-10-15T02:43:44.503Z,9.50
2017-10-15T02:44:44.498Z,10.10
2017-10-15T02:45:44.496Z,9.80
2017-10-15T02:46:44.495Z,9.00
2017-10-15T02:47:44.493Z,9.10
2017-10-15T02:48:44.489Z,9.60
2017-10-15T02:49:44.484Z,8.70
2017-10-15T02:50:44.481Z,9.40
2017-10-15T02:51:44.481Z,9.40
2017-10-15T02:52:44.474Z,10.20
2017-10-15T02:53:44.473Z,9.20
2017-10-15T02:54:44.470Z,10.00
2017-10-15T02:55:44.470Z,9.10
2017-10-15T02:56:44.466Z,10.00
2017-10-15T02:57:44.467Z,9.90
2017-10-15T02:58:44.464Z,10.00
2017-10-15T02:59:44.463Z,9.50
2017-10-15T03:00:44.459Z,10.10
2017-10-15T03:01:44.456Z,11.00
2017-10-15T03:02:44.455Z,10.40
2017-10-15T03:03:44.454Z,10.20
2017-10-15T03:04:44.450Z,10.00
2017-10-15T03:05:44.443Z,9.50
2017-10-15T03:06:44.441Z,9.70
2017-10-15T03:07:44.439Z,9.50
2017-10-15T03:08:44.436Z,10.10
2017-10-15T03:09:44.433Z,10.60
2017-10-15T03:10:44.430Z,10.30
2017-10-15T03:11:44.429Z,10.40
2017-10-15T03:12:44.433Z,10.70
2017-10-15T03:13:44.428Z,10.30
2017-10-15T03:14:44.425Z,10.40
2017-10-15T03:15:44.422Z,10.40
2017-10-15T03:16:44.419Z,10.90
2017-10-15T03:17:44.417Z,10.50
2017-10-15T03:18:44.414Z,10.90
2017-10-15T03:19:44.417Z,10.70
2017-10-15T03:20:44.407Z,10.90
2017-10-15T03:21:44.402Z,11.90
2017-10-15T03:22:44.399Z,11.20
2017-10-15T03:23:44.397Z,10.70
2017-10-15T03:24:44.393Z,11.10
2017-10-15T03:25:44.392Z,11.90
2017-10-15T03:26:44.389Z,11.30
2017-10-15T03:27:44.385Z,11.80
2017-10-15T03:28:44.383Z,11.40
2017-10-15T03:29:44.385Z,11.50
2017-10-15T03:30:44.383Z,11.30
2017-10-15T03:31:44.380Z,12.10
2017-10-15T03:32:44.377Z,11.70
2017-10-15T03:33:44.374Z,11.90
2017-10-15T03:34:44.370Z,11.40
2017-10-15T03:35:44.367Z,12.30
2017-10-15T03:36:44.366Z,12.10
2017-10-15T03:37:44.360Z,11.40
2017-10-15T03:38:44.356Z,11.70
2017-10-15T03:39:44.353Z,11.50
2017-10-15T03:40:44.349Z,11.60
2017-10-15T03:41:44.352Z,11.40
2017-10-15T03:42:44.354Z,11.70
2017-10-15T03:43:44.346Z,11.60
2017-10-15T03:44:44.343Z,11.80
2017-10-15T03:45:44.337Z,10.90
2017-10-15T03:46:44.334Z,11.70
2017-10-15T03:47:44.344Z,12.40
2017-10-15T03:48:44.330Z,11.70
2017-10-15T03:49:44.325Z,11.70
2017-10-15T03:50:44.322Z,11.20
2017-10-15T03:51:44.334Z,11.40
2017-10-15T03:52:44.317Z,11.10
2017-10-15T03:53:44.318Z,11.00
2017-10-15T03:54:44.314Z,11.30
2017-10-15T03:55:44.312Z,11.80
2017-10-15T03:56:44.309Z,11.30
2017-10-15T03:57:44.308Z,11.00
2017-10-15T03:58:44.305Z,11.10
2017-10-15T03:59:44.301Z,11.40
2017-10-15T04:00:44.298Z,12.20
2017-10-15T04:01:44.294Z,11.50
2017-10-15T04:02:44.288Z,11.10
2017-10-15T04:03:44.286Z,11.70
2017-10-15T04:04:44.282Z,11.40
2017-10-15T04:05:44.279Z,12.00
2017-10-15T04:06:44.277Z,11.40
2017-10-15T04:07:44.275Z,11.30
2017-10-15T04:08:44.270Z,11.10
2017-10-15T04:09:44.273Z,11.40
2017-10-15T04:10:44.269Z,11.20
2017-10-15T04:11:44.267Z,11.80
2017-10-15T04:12:44.264Z,11.90
2017-10-15T04:13:44.260Z,11.40
2017-10-15T04:14:44.259Z,12.20
2017-10-15T04:15:44.255Z,11.30
2017-10-15T04:16:44.250Z,11.10
2017-10-15T04:17:44.245Z,10.60
2017-10-15T04:18:44.241Z,11.10
2017-10-15T04:19:44.239Z,11.10
2017-10-15T04:20:44.235Z,10.90
2017-10-15T04:21:44.234Z,11.00
2017-10-15T04:22:44.229Z,10.90
2017-10-15T04:23:44.227Z,10.20
2017-10-15T04:24:44.224Z,10.80
2017-10-15T04:25:44.226Z,11.40
2017-10-15T04:26:44.222Z,10.30
2017-10-15T04:27:44.219Z,11.10
2017-10-15T04:28:44.216Z,11.70
2017-10-15T04:29:44.214Z,10.60
2017-10-15T04:30:44.210Z,11.40
2017-10-15T04:31:44.207Z,11.30
2017-10-15T04:32:44.205Z,10.80
2017-10-15T04:33:44.199Z,11.10
2017-10-15T04:34:44.194Z,12.00
2017-10-15T04:35:44.192Z,12.00
2017-10-15T04:36:44.187Z,11.90
2017-10-15T04:37:44.184Z,11.80
2017-10-15T04:38:44.183Z,11.80
2017-10-15T04:39:44.180Z,11.00
2017-10-15T04:40:44.176Z,10.80
2017-10-15T04:41:44.177Z,11.90
2017-10-15T04:42:44.174Z,11.30
2017-10-15T04:43:44.172Z,11.60
2017-10-15T04:44:44.168Z,11.00
2017-10-15T04:45:44.161Z,11.50
2017-10-15T04:46:44.159Z,11.20
2017-10-15T04:47:44.155Z,11.20
2017-10-15T04:48:44.152Z,11.30
2017-10-15T04:49:44.154Z,10.50
2017-10-15T04:50:44.150Z,10.90
2017-10-15T04:51:44.147Z,11.00
2017-10-15T04:52:44.143Z,10.90
2017-10-15T04:53:44.140Z,10.40
2017-10-15T04:54:44.138Z,10.40
2017-10-15T04:55:44.135Z,11.60
2017-10-15T04:56:44.133Z,11.80
2017-10-15T04:57:44.126Z,11.00
2017-10-15T04:58:44.122Z,11.50
2017-10-15T04:59:44.119Z,10.90
2017-10-15T05:00:44.116Z,11.00
2017-10-15T05:01:44.113Z,11.00
2017-10-15T05:02:44.110Z,11.20
2017-10-15T05:03:44.108Z,11.10
2017-10-15T05:04:44.103Z,10.40
2017-10-15T05:05:44.117Z,11.40
2017-10-15T05:06:44.106Z,10.90
2017-10-15T05:07:44.110Z,11.20
2017-10-15T05:08:44.097Z,11.00
2017-10-15T05:09:44.092Z,11.80
2017-10-15T05:10:44.090Z,11.00
2017-10-15T05:11:44.087Z,11.20
2017-10-15T05:12:44.083Z,10.20
2017-10-15T05:13:44.077Z,10.80
2017-10-15T05:14:44.074Z,10.20
2017-10-15T05:15:44.071Z,10.70
2017-10-15T05:16:44.069Z,10.70
2017-10-15T05:17:44.066Z,11.10
2017-10-15T05:18:44.062Z,10.60
2017-10-15T05:19:44.060Z,10.90
2017-10-15T05:20:44.056Z,11.10
2017-10-15T05:21:44.057Z,11.30
2017-10-15T05:22:44.057Z,11.60
2017-10-15T05:23:44.053Z,10.50
2017-10-15T05:24:44.050Z,10.60
2017-10-15T05:25:44.046Z,11.30
2017-10-15T05:26:44.042Z,10.40
2017-10-15T05:27:44.041Z,10.90
2017-10-15T05:28:44.039Z,10.40
2017-10-15T05:29:44.029Z,10.30
2017-10-15T05:30:44.034Z,10.60
2017-10-15T05:31:44.025Z,10.70
2017-10-15T05:32:44.024Z,10.70
2017-10-15T05:33:44.017Z,10.90
2017-10-15T05:34:44.015Z,11.00
2017-10-15T05:35:44.012Z,10.70
2017-10-15T05:36:44.009Z,10.70
2017-10-15T05:37:44.009Z,10.30
2017-10-15T05:38:44.008Z,10.70
2017-10-15T05:39:44.005Z,10.40
2017-10-15T05:40:44.001Z,11.10
2017-10-15T05:41:44.000Z,9.90
2017-10-15T05:42:43.995Z,10.90
2017-10-15T05:43:43.992Z,10.80
2017-10-15T05:44:43.988Z,11.40
2017-10-15T05:45:43.985Z,10.50
2017-10-15T05:46:43.979Z,10.30
2017-10-15T05:47:43.977Z,10.00
2017-10-15T05:48:43.973Z,10.80
2017-10-15T05:49:43.976Z,10.00
2017-10-15T05:50:43.972Z,10.70
2017-10-15T05:51:43.970Z,9.80
2017-10-15T05:52:43.965Z,10.50
2017-10-15T05:53:43.959Z,9.90
2017-10-15T05:54:43.956Z,10.00
2017-10-15T05:55:43.954Z,9.90
2017-10-15T05:56:43.951Z,9.80
2017-10-15T05:57:43.947Z,9.80
2017-10-15T05:58:43.945Z,10.10
2017-10-15T05:59:43.942Z,9.70
2017-10-15T06:00:43.938Z,9.90
2017-10-15T06:01:43.939Z,9.90
2017-10-15T06:02:43.937Z,9.90
2017-10-15T06:03:43.933Z,9.50
2017-10-15T06:04:43.932Z,9.80
2017-10-15T06:05:43.928Z,10.30
2017-10-15T06:06:43.924Z,9.90
2017-10-15T06:07:43.923Z,9.80
2017-10-15T06:08:43.920Z,9.80
2017-10-15T06:09:43.913Z,9.80
2017-10-15T06:10:43.911Z,9.30
2017-10-15T06:11:43.921Z,9.10
2017-10-15T06:12:43.903Z,9.50
2017-10-15T06:13:43.899Z,9.20
2017-10-15T06:14:43.898Z,9.70
2017-10-15T06:15:43.896Z,9.40
2017-10-15T06:16:43.893Z,9.40
2017-10-15T06:17:43.895Z,8.80
2017-10-15T06:18:43.890Z,9.90
2017-10-15T06:19:43.889Z,8.80
2017-10-15T06:20:43.884Z,8.50
2017-10-15T06:21:43.884Z,8.50
2017-10-15T06:22:43.880Z,9.30
2017-10-15T06:23:43.877Z,8.60
2017-10-15T06:24:43.875Z,9.00
2017-10-15T06:25:43.867Z,8.00
2017-10-15T06:26:43.869Z,7.60
2017-10-15T06:27:43.865Z,7.70
2017-10-15T06:28:43.864Z,7.30
2017-10-15T06:29:43.858Z,7.20
2017-10-15T06:30:43.862Z,6.70
2017-10-15T06:31:43.854Z,7.20
2017-10-15T06:32:43.852Z,6.50
2017-10-15T06:33:43.857Z,6.50
2017-10-15T06:34:43.854Z,6.10
2017-10-15T06:35:43.854Z,6.40
2017-10-15T06:36:43.852Z,6.60
2017-10-15T06:37:43.851Z,6.10
2017-10-15T06:38:43.851Z,6.60
2017-10-15T06:39:43.851Z,6.60
2017-10-15T06:40:43.849Z,6.50
2017-10-15T06:41:43.875Z,6.00
2017-10-15T06:42:43.846Z,5.50
2017-10-15T06:43:43.846Z,6.20
2017-10-15T06:44:43.847Z,5.90
2017-10-15T06:45:43.849Z,6.10
2017-10-15T06:46:43.849Z,6.10
2017-10-15T06:47:43.850Z,6.30
2017-10-15T06:48:43.850Z,6.30
2017-10-15T06:49:43.857Z,6.90
2017-10-15T06:50:43.856Z,6.40
2017-10-15T06:51:43.862Z,6.10
2017-10-15T06:52:43.858Z,6.40
2017-10-15T06:53:43.856Z,6.40
2017-10-15T06:54:43.859Z,6.20
2017-10-15T06:55:43.860Z,6.20
2017-10-15T06:56:43.862Z,5.80
2017-10-15T06:57:43.869Z,5.70
2017-10-15T06:58:43.872Z,5.90
2017-10-15T06:59:43.875Z,5.30
2017-10-15T07:00:43.876Z,6.10
2017-10-15T07:01:43.887Z,5.80
2017-10-15T07:02:43.882Z,5.80
2017-10-15T07:03:43.887Z,5.50
2017-10-15T07:04:43.894Z,5.60
2017-10-15T07:05:43.889Z,5.70
2017-10-15T07:06:43.893Z,5.50
2017-10-15T07:07:43.898Z,5.30
2017-10-15T07:08:43.902Z,5.60
2017-10-15T07:09:43.905Z,5.40
2017-10-15T07:10:43.909Z,5.50
2017-10-15T07:11:43.914Z,5.10
2017-10-15T07:12:43.917Z,5.70
2017-10-15T07:13:43.926Z,5.80
2017-10-15T07:14:43.930Z,5.50
2017-10-15T07:15:43.936Z,5.40
2017-10-15T07:16:43.941Z,5.30
2017-10-15T07:17:43.945Z,5.50
2017-10-15T07:18:43.952Z,5.50
2017-10-15T07:19:43.957Z,5.80
2017-10-15T07:20:43.962Z,5.70
2017-10-15T07:21:43.963Z,5.00
2017-10-15T07:22:43.968Z,5.40
2017-10-15T07:23:43.975Z,5.20
2017-10-15T07:24:43.980Z,5.30
2017-10-15T07:25:43.987Z,5.10
2017-10-15T07:26:43.990Z,5.20
2017-10-15T07:27:43.998Z,5.40
2017-10-15T07:28:44.004Z,5.50
2017-10-15T07:29:44.017Z,5.60
2017-10-15T07:30:44.019Z,5.80
2017-10-15T07:31:44.028Z,5.60
2017-10-15T07:32:44.032Z,4.90
2017-10-15T07:33:44.039Z,5.30
2017-10-15T07:34:44.045Z,5.30
2017-10-15T07:35:44.052Z,5.50
2017-10-15T07:36:44.058Z,4.90
2017-10-15T07:37:44.061Z,4.90
2017-10-15T07:38:44.068Z,5.00
2017-10-15T07:39:44.075Z,5.10
2017-10-15T07:40:44.081Z,4.90
2017-10-15T07:41:44.089Z,4.80
2017-10-15T07:42:44.094Z,4.50
2017-10-15T07:43:44.103Z,4.40
2017-10-15T07:44:44.109Z,4.90
2017-10-15T07:45:44.124Z,4.70
2017-10-15T07:46:44.128Z,5.10
2017-10-15T07:47:44.137Z,4.70
2017-10-15T07:48:44.144Z,5.20
2017-10-15T07:49:44.153Z,4.90
2017-10-15T07:50:44.159Z,4.60
2017-10-15T07:51:44.167Z,4.60
2017-10-15T07:52:44.173Z,5.10
2017-10-15T07:53:44.177Z,4.90
2017-10-15T07:54:44.185Z,4.30
2017-10-15T07:55:44.192Z,4.70
2017-10-15T07:56:44.199Z,4.70
2017-10-15T07:57:44.209Z,5.10
2017-10-15T07:58:44.217Z,4.60
2017-10-15T07:59:44.225Z,4.90
2017-10-15T08:00:44.233Z,4.90
2017-10-15T08:01:44.248Z,5.10
2017-10-15T08:02:44.256Z,4.50
2017-10-15T08:03:44.261Z,4.70
2017-10-15T08:04:44.268Z,4.80
2017-10-15T08:05:44.275Z,4.60
2017-10-15T08:06:44.286Z,4.60
2017-10-15T08:07:44.294Z,4.50
2017-10-15T08:08:44.301Z,4.70
2017-10-15T08:09:44.305Z,4.70
2017-10-15T08:10:44.313Z,4.70
2017-10-15T08:11:44.322Z,4.70
2017-10-15T08:12:44.330Z,5.10
2017-10-15T08:13:44.338Z,4.80
2017-10-15T08:14:44.347Z,4.50
2017-10-15T08:15:44.355Z,4.60
2017-10-15T08:16:44.365Z,4.20
2017-10-15T08:17:44.378Z,4.50
2017-10-15T08:18:44.386Z,4.30
2017-10-15T08:19:44.396Z,4.30
2017-10-15T08:20:44.401Z,4.30
2017-10-15T08:21:44.412Z,4.40
2017-10-15T08:22:44.421Z,4.40
2017-10-15T08:23:44.430Z,4.10
2017-10-15T08:24:44.441Z,4.70
2017-10-15T08:25:44.442Z,4.50
2017-10-15T08:26:44.453Z,4.50
2017-10-15T08:27:44.463Z,4.30
2017-10-15T08:28:44.470Z,4.40
2017-10-15T08:29:44.479Z,4.40
2017-10-15T08:30:44.491Z,4.90
2017-10-15T08:31:44.499Z,4.50
2017-10-15T08:32:44.510Z,4.40
2017-10-15T08:33:44.522Z,5.20
2017-10-15T08:34:44.532Z,4.70
2017-10-15T08:35:44.541Z,4.50
2017-10-15T08:36:44.549Z,4.50
2017-10-15T08:37:44.560Z,4.40
2017-10-15T08:38:44.570Z,4.50
2017-10-15T08:39:44.579Z,4.50
2017-10-15T08:40:44.588Z,4.30
2017-10-15T08:41:44.595Z,4.50
2017-10-15T08:42:44.612Z,4.60
2017-10-15T08:43:44.613Z,4.50
2017-10-15T08:44:44.621Z,4.20
2017-10-15T08:45:44.632Z,4.20
2017-10-15T08:46:44.642Z,4.20
2017-10-15T08:47:44.653Z,4.30
2017-10-15T08:48:44.661Z,3.80
2017-10-15T08:49:44.675Z,3.90
2017-10-15T08:50:44.685Z,3.80
2017-10-15T08:51:44.696Z,3.90
2017-10-15T08:52:44.705Z,3.90
2017-10-15T08:53:44.721Z,4.20
2017-10-15T08:54:44.726Z,3.90
2017-10-15T08:55:44.735Z,4.00
2017-10-15T08:56:44.746Z,3.70
2017-10-15T08:57:44.752Z,4.10
2017-10-15T08:58:44.764Z,3.80
2017-10-15T08:59:44.774Z,4.00
2017-10-15T09:00:44.782Z,3.90
2017-10-15T09:01:44.798Z,4.10
2017-10-15T09:02:44.807Z,4.20
2017-10-15T09:03:44.821Z,3.90
2017-10-15T09:04:44.829Z,3.80
2017-10-15T09:05:44.836Z,3.90
2017-10-15T09:06:44.849Z,3.60
2017-10-15T09:07:44.858Z,3.80
2017-10-15T09:08:44.869Z,3.40
2017-10-15T09:09:44.879Z,3.60
2017-10-15T09:10:44.889Z,3.60
2017-10-15T09:11:44.903Z,4.00
2017-10-15T09:12:44.912Z,3.70
2017-10-15T09:13:44.928Z,3.60
2017-10-15T09:14:44.940Z,3.50
2017-10-15T09:15:44.951Z,3.30
2017-10-15T09:16:44.963Z,3.20
2017-10-15T09:17:44.975Z,3.70
2017-10-15T09:18:44.986Z,3.10
2017-10-15T09:19:44.997Z,3.50
2017-10-15T09:20:45.009Z,3.40
2017-10-15T09:21:45.017Z,3.30
2017-10-15T09:22:45.029Z,3.60
2017-10-15T09:23:45.046Z,3.70
2017-10-15T09:24:45.053Z,3.40
2017-10-15T09:25:45.066Z,3.90
2017-10-15T09:26:45.077Z,3.70
2017-10-15T09:27:45.089Z,3.30
2017-10-15T09:28:45.101Z,3.60
2017-10-15T09:29:45.117Z,3.90
2017-10-15T09:30:45.129Z,3.70
2017-10-15T09:31:45.141Z,3.50
2017-10-15T09:32:45.152Z,3.30
2017-10-15T09:33:45.166Z,3.30
2017-10-15T09:34:45.177Z,3.80
2017-10-15T09:35:45.190Z,3.60
2017-10-15T09:36:45.201Z,3.80
2017-10-15T09:37:45.210Z,3.60
2017-10-15T09:38:45.221Z,4.20
2017-10-15T09:39:45.234Z,4.10
2017-10-15T09:40:45.244Z,3.50
2017-10-15T09:41:45.260Z,3.70
2017-10-15T09:42:45.269Z,3.80
2017-10-15T09:43:45.280Z,3.80
2017-10-15T09:44:45.290Z,3.70
2017-10-15T09:45:45.309Z,3.40
2017-10-15T09:46:45.320Z,3.20
2017-10-15T09:47:45.331Z,3.30
2017-10-15T09:48:45.343Z,3.10
2017-10-15T09:49:45.353Z,3.30
2017-10-15T09:50:45.366Z,3.50
2017-10-15T09:51:45.378Z,3.30
2017-10-15T09:52:45.390Z,3.10
2017-10-15T09:53:45.404Z,3.10
2017-10-15T09:54:45.410Z,3.30
2017-10-15T09:55:45.423Z,3.20
2017-10-15T09:56:45.433Z,3.30
2017-10-15T09:57:45.447Z,3.30
2017-10-15T09:58:45.459Z,3.40
2017-10-15T09:59:45.471Z,3.50
2017-10-15T10:00:45.483Z,3.20
2017-10-15T10:01:45.499Z,3.00
2017-10-15T10:02:45.513Z,3.40
2017-10-15T10:03:45.525Z,2.90
2017-10-15T10:04:45.538Z,3.10
2017-10-15T10:05:45.546Z,3.10
2017-10-15T10:06:45.558Z,3.30
2017-10-15T10:07:45.571Z,3.10
2017-10-15T10:08:45.584Z,3.30
2017-10-15T10:09:45.604Z,3.10
2017-10-15T10:10:45.614Z,3.10
2017-10-15T10:11:45.627Z,2.80
2017-10-15T10:12:45.638Z,2.80
2017-10-15T10:13:45.652Z,3.00
2017-10-15T10:14:45.667Z,3.30
2017-10-15T10:15:45.679Z,3.10
2017-10-15T10:16:45.691Z,3.10
2017-10-15T10:17:45.699Z,3.10
2017-10-15T10:18:45.717Z,3.00
2017-10-15T10:19:45.729Z,3.60
2017-10-15T10:20:45.742Z,3.30
2017-10-15T10:21:45.752Z,3.10
2017-10-15T10:22:45.765Z,3.60
2017-10-15T10:23:45.778Z,3.30
2017-10-15T10:24:45.790Z,3.60
2017-10-15T10:25:45.807Z,3.50
2017-10-15T10:26:45.821Z,3.50
2017-10-15T10:27:45.834Z,3.40
2017-10-15T10:28:45.844Z,3.20
2017-10-15T10:29:45.864Z,3.30
2017-10-15T10:30:45.874Z,3.60
2017-10-15T10:31:45.884Z,3.40
2017-10-15T10:32:45.895Z,3.40
2017-10-15T10:33:45.904Z,3.30
2017-10-15T10:34:45.917Z,3.60
2017-10-15T10:35:45.930Z,3.50
2017-10-15T10:36:45.941Z,3.70
2017-10-15T10:37:45.954Z,3.70
2017-10-15T10:38:45.965Z,3.60
2017-10-15T10:39:45.978Z,3.60
2017-10-15T10:40:45.990Z,3.50
2017-10-15T10:41:46.008Z,3.70
2017-10-15T10:42:46.019Z,3.50
2017-10-15T10:43:46.032Z,3.50
2017-10-15T10:44:46.044Z,3.70
2017-10-15T10:45:46.058Z,3.40
2017-10-15T10:46:46.068Z,3.10
2017-10-15T10:47:46.081Z,3.50
2017-10-15T10:48:46.092Z,3.20
2017-10-15T10:49:46.102Z,3.40
2017-10-15T10:50:46.114Z,3.20
2017-10-15T10:51:46.128Z,3.30
2017-10-15T10:52:46.137Z,3.20
2017-10-15T10:53:46.152Z,3.40
2017-10-15T10:54:46.164Z,3.50
2017-10-15T10:55:46.175Z,3.20
2017-10-15T10:56:46.187Z,3.10
2017-10-15T10:57:46.202Z,3.20
2017-10-15T10:58:46.219Z,3.40
2017-10-15T10:59:46.229Z,3.50
2017-10-15T11:00:46.240Z,3.30
2017-10-15T11:01:46.252Z,3.70
2017-10-15T11:02:46.270Z,3.30
2017-10-15T11:03:46.278Z,3.10
2017-10-15T11:04:46.291Z,3.60
2017-10-15T11:05:46.299Z,3.50
2017-10-15T11:06:46.311Z,3.60
2017-10-15T11:07:46.324Z,3.60
2017-10-15T11:08:46.349Z,3.10
2017-10-15T11:09:46.351Z,3.60
2017-10-15T11:10:46.362Z,3.70
2017-10-15T11:11:46.376Z,3.60
2017-10-15T11:12:46.386Z,3.50
2017-10-15T11:13:46.393Z,3.20
2017-10-15T11:14:46.406Z,3.80
2017-10-15T11:15:46.417Z,4.00
2017-10-15T11:16:46.427Z,3.80
2017-10-15T11:17:46.438Z,3.60
2017-10-15T11:18:46.449Z,3.90
2017-10-15T11:19:46.460Z,3.80
2017-10-15T11:20:46.471Z,3.60
2017-10-15T11:21:46.484Z,3.60
2017-10-15T11:22:46.493Z,4.00
2017-10-15T11:23:46.506Z,3.70
2017-10-15T11:24:46.511Z,4.40
2017-10-15T11:25:46.520Z,3.80
2017-10-15T11:26:46.527Z,3.70
2017-10-15T11:27:46.540Z,4.00
2017-10-15T11:28:46.544Z,4.30
2017-10-15T11:29:46.547Z,4.20
2017-10-15T11:30:46.556Z,3.90
2017-10-15T11:31:46.563Z,4.50
2017-10-15T11:32:46.570Z,3.90
2017-10-15T11:33:46.579Z,4.20
2017-10-15T11:34:46.584Z,4.00
2017-10-15T11:35:46.592Z,4.00
2017-10-15T11:36:46.599Z,4.20
2017-10-15T11:37:46.608Z,4.30
2017-10-15T11:38:46.616Z,3.80
2017-10-15T11:39:46.622Z,3.90
2017-10-15T11:40:46.629Z,4.20
2017-10-15T11:41:46.635Z,4.50
2017-10-15T11:42:46.639Z,4.20
2017-10-15T11:43:46.647Z,4.30
2017-10-15T11:44:46.651Z,4.30
2017-10-15T11:45:46.655Z,4.20
2017-10-15T11:46:46.760Z,4.10
2017-10-15T11:47:46.665Z,4.50
2017-10-15T11:48:46.670Z,4.40
2017-10-15T11:49:46.676Z,4.00
2017-10-15T11:50:46.683Z,4.00
2017-10-15T11:51:46.688Z,4.10
2017-10-15T11:52:46.697Z,4.20
2017-10-15T11:53:46.700Z,4.70
2017-10-15T11:54:46.707Z,4.70
2017-10-15T11:55:46.712Z,4.30
2017-10-15T11:56:46.716Z,4.70
2017-10-15T11:57:46.722Z,4.70
2017-10-15T11:58:46.727Z,4.70
2017-10-15T11:59:46.732Z,4.40
2017-10-15T12:00:46.735Z,4.80
2017-10-15T12:01:46.736Z,4.10
2017-10-15T12:02:46.741Z,4.30
2017-10-15T12:03:46.746Z,4.30
2017-10-15T12:04:46.750Z,4.40
2017-10-15T12:05:46.756Z,4.30
2017-10-15T12:06:46.761Z,5.10
2017-10-15T12:07:46.765Z,6.10
2017-10-15T12:08:46.768Z,4.90
2017-10-15T12:09:46.779Z,4.50
2017-10-15T12:10:46.786Z,4.30
2017-10-15T12:11:46.786Z,4.40
2017-10-15T12:12:46.791Z,4.70
2017-10-15T12:13:46.791Z,4.70
2017-10-15T12:14:46.796Z,4.70
2017-10-15T12:15:46.799Z,4.80
2017-10-15T12:16:46.804Z,4.80
2017-10-15T12:17:46.814Z,4.60
2017-10-15T12:18:46.818Z,4.80
2017-10-15T12:19:46.821Z,4.60
2017-10-15T12:20:46.824Z,4.80
2017-10-15T12:21:46.828Z,4.90
2017-10-15T12:22:46.832Z,4.40
2017-10-15T12:23:46.837Z,4.50
2017-10-15T12:24:46.840Z,4.40
2017-10-15T12:25:46.841Z,4.50
2017-10-15T12:26:46.844Z,4.70
2017-10-15T12:27:46.849Z,4.60
2017-10-15T12:28:46.851Z,4.70
2017-10-15T12:29:46.856Z,5.00
2017-10-15T12:30:46.860Z,4.70
2017-10-15T12:31:46.864Z,4.60
2017-10-15T12:32:46.868Z,4.20
2017-10-15T12:33:46.877Z,4.80
2017-10-15T12:34:46.880Z,4.70
2017-10-15T12:35:46.883Z,4.80
2017-10-15T12:36:46.888Z,4.90
2017-10-15T12:37:46.907Z,4.80
2017-10-15T12:38:46.895Z,5.10
2017-10-15T12:39:46.899Z,5.50
2017-10-15T12:40:46.901Z,5.30
2017-10-15T12:41:46.903Z,5.00
2017-10-15T12:42:46.905Z,5.30
2017-10-15T12:43:46.909Z,4.90
2017-10-15T12:44:46.912Z,5.00
2017-10-15T12:45:46.916Z,5.60
2017-10-15T12:46:46.919Z,5.40
2017-10-15T12:47:46.923Z,5.70
2017-10-15T12:48:46.926Z,4.90
2017-10-15T12:49:46.934Z,5.60
2017-10-15T12:50:46.939Z,5.50
2017-10-15T12:51:46.943Z,4.70
2017-10-15T12:52:46.944Z,4.90
2017-10-15T12:53:46.947Z,5.20
2017-10-15T12:54:46.951Z,5.30
2017-10-15T12:55:46.955Z,4.80
2017-10-15T12:56:46.958Z,5.10
2017-10-15T12:57:46.957Z,5.20
2017-10-15T12:58:46.961Z,5.10
2017-10-15T12:59:46.965Z,5.10
2017-10-15T13:00:46.967Z,5.20
2017-10-15T13:01:46.971Z,4.90
2017-10-15T13:02:46.974Z,5.20
2017-10-15T13:03:46.977Z,5.60
2017-10-15T13:04:46.980Z,5.20
2017-10-15T13:05:46.988Z,5.20
2017-10-15T13:06:46.992Z,5.00
2017-10-15T13:07:46.995Z,5.60
2017-10-15T13:08:46.995Z,5.00
2017-10-15T13:09:47.001Z,4.90
2017-10-15T13:10:47.004Z,5.30
2017-10-15T13:11:47.006Z,5.00
2017-10-15T13:12:47.010Z,4.80